EmailTwitter


Observations de surface / Québec / CYUL (71627)

Régions: Québec | Canada | États-Unis | Europe | France | UK | Ailleurs
Station
Affichage
Infos & localisation pour CYUL (71627) | Aide pour décoder les METARs

Observations prises le 2018-05-20 à 19H00 UTC à MONTREAL INTL A, QB (CYUL)

Etat du ciel: ciel variable.

Température: 20.0 Celsius

Point de rosée: 10.0 Celsius

Humidité relative: 53%

Vents: Nord-ouest à 9 km/h ou 5 noeuds.

Rafale du vent: 30 km/h ou 16 noeuds.

Pression au niveau moyen de la mer: 101.43 kilopascals.

Calage altimétrique: 101.42 kilopascals ou 29.95 pouces de mercure.

Visibilité horizontale: 30.00 milles terrestres ou 48.00 kilomètres.

Observation METAR:

CYUL 201900Z 30005G16KT 270V360 30SM FEW045 SCT240 20/10 A2995 RMK CU1CI2 CC

ASOCTD SLP143 DENSITY ALT 700FT=